createdAt,value
2022-10-22T00:03:00.722Z,42.20
2022-10-22T00:08:03.928Z,42.00
2022-10-22T00:13:07.059Z,45.60
2022-10-22T00:18:09.829Z,37.60
2022-10-22T00:23:12.569Z,43.50
2022-10-22T00:28:15.534Z,37.20
2022-10-22T00:33:18.287Z,41.80
2022-10-22T00:38:21.638Z,40.60
2022-10-22T00:43:24.690Z,39.70
2022-10-22T00:48:30.215Z,42.80
2022-10-22T00:53:39.748Z,39.10
2022-10-22T00:58:46.623Z,38.90
2022-10-22T01:03:50.679Z,41.10
2022-10-22T01:09:11.465Z,42.00
2022-10-22T01:14:16.961Z,43.70
2022-10-22T01:19:56.965Z,39.30
2022-10-22T01:25:35.111Z,36.30
2022-10-22T01:30:39.573Z,44.90
2022-10-22T01:35:45.360Z,44.90
2022-10-22T01:40:49.741Z,38.00
2022-10-22T01:45:57.937Z,41.30
2022-10-22T01:51:35.588Z,39.20
2022-10-22T01:57:11.975Z,44.40
2022-10-22T02:02:43.120Z,39.90
2022-10-22T02:08:03.276Z,43.50
2022-10-22T02:13:11.062Z,43.80
2022-10-22T02:18:15.914Z,42.60
2022-10-22T02:23:20.602Z,46.70
2022-10-22T02:28:39.859Z,44.20
2022-10-22T02:33:47.915Z,46.60
2022-10-22T02:38:52.455Z,41.30
2022-10-22T02:43:55.930Z,43.90
2022-10-22T02:48:58.652Z,42.70
2022-10-22T02:54:01.484Z,45.30
2022-10-22T02:59:04.308Z,47.00
2022-10-22T03:04:07.085Z,45.30
2022-10-22T03:09:10.417Z,44.20
2022-10-22T03:14:13.579Z,46.40
2022-10-22T03:19:16.430Z,41.90
2022-10-22T03:24:26.190Z,50.00
2022-10-22T03:29:31.921Z,48.20
2022-10-22T03:34:34.696Z,45.30
2022-10-22T03:39:38.533Z,45.60
2022-10-22T03:44:41.632Z,46.50
2022-10-22T03:49:44.423Z,45.40
2022-10-22T03:54:47.292Z,48.30
2022-10-22T03:59:51.146Z,49.00
2022-10-22T04:04:53.914Z,47.40
2022-10-22T04:09:56.623Z,49.10
2022-10-22T04:14:59.356Z,49.80
2022-10-22T04:20:03.302Z,47.50
2022-10-22T04:25:06.275Z,46.80
2022-10-22T04:30:10.035Z,48.10
2022-10-22T04:35:12.880Z,51.30
2022-10-22T04:40:15.693Z,43.90
2022-10-22T04:45:18.486Z,47.70
2022-10-22T04:50:21.369Z,51.10
2022-10-22T04:55:24.155Z,54.80
2022-10-22T05:00:27.893Z,48.80
2022-10-22T05:05:30.628Z,48.70
2022-10-22T05:10:33.392Z,47.00
2022-10-22T05:15:36.127Z,53.30
2022-10-22T05:20:42.660Z,50.90
2022-10-22T05:25:45.418Z,51.10
2022-10-22T05:30:56.531Z,53.00
2022-10-22T05:36:00.509Z,55.80
2022-10-22T05:41:07.412Z,51.40
2022-10-22T05:46:23.074Z,51.00
2022-10-22T05:51:28.326Z,61.60
2022-10-22T05:56:32.587Z,54.50
2022-10-22T06:01:35.735Z,53.90
2022-10-22T06:06:40.199Z,56.80
2022-10-22T06:11:43.031Z,58.80
2022-10-22T06:16:45.849Z,51.00
2022-10-22T06:21:49.154Z,57.60
2022-10-22T06:31:55.243Z,53.80
2022-10-22T06:36:58.026Z,58.10
2022-10-22T06:42:00.780Z,60.10
2022-10-22T06:47:03.533Z,57.50
2022-10-22T06:52:06.304Z,60.00
2022-10-22T06:57:09.090Z,54.60
2022-10-22T07:02:11.868Z,56.90
2022-10-22T07:07:15.280Z,53.20
2022-10-22T07:12:18.060Z,59.40
2022-10-22T07:17:20.772Z,60.90
2022-10-22T07:22:23.514Z,57.20
2022-10-22T07:27:26.247Z,52.30
2022-10-22T07:32:28.986Z,50.80
2022-10-22T07:37:31.738Z,45.70
2022-10-22T07:42:34.486Z,50.50
2022-10-22T07:47:37.312Z,48.20
2022-10-22T07:52:40.285Z,51.70
2022-10-22T08:02:46.157Z,47.70
2022-10-22T08:12:51.562Z,54.60
2022-10-22T08:17:54.587Z,51.30
2022-10-22T08:33:03.783Z,39.10
2022-10-22T08:43:12.667Z,29.30
2022-10-22T08:48:38.438Z,24.60
2022-10-22T08:53:49.116Z,30.50
2022-10-22T08:59:10.844Z,24.50
2022-10-22T09:04:41.596Z,25.30
2022-10-22T09:09:51.161Z,24.30
2022-10-22T09:14:54.249Z,20.40
2022-10-22T09:25:29.664Z,23.90
2022-10-22T09:30:35.447Z,29.70
2022-10-22T09:35:53.421Z,47.60
2022-10-22T09:40:58.668Z,58.00
2022-10-22T09:46:04.848Z,67.80
2022-10-22T09:51:25.547Z,76.20
2022-10-22T09:56:35.641Z,63.70
2022-10-22T10:01:39.445Z,48.80
2022-10-22T10:06:44.353Z,40.30
2022-10-22T10:11:58.939Z,42.40
2022-10-22T10:17:19.782Z,32.30
2022-10-22T10:22:31.589Z,27.20
2022-10-22T10:27:46.070Z,45.50
2022-10-22T10:32:55.487Z,43.00
2022-10-22T10:38:09.107Z,50.80
2022-10-22T10:43:38.834Z,51.70
2022-10-22T10:48:56.179Z,44.20
2022-10-22T10:54:16.467Z,41.50
2022-10-22T10:59:28.892Z,35.80
2022-10-22T11:04:48.735Z,39.70
2022-10-22T11:10:00.713Z,45.60
2022-10-22T11:15:09.630Z,47.60
2022-10-22T11:20:24.990Z,55.30
2022-10-22T11:25:33.416Z,42.10
2022-10-22T11:30:38.358Z,42.60
2022-10-22T11:35:44.108Z,55.70
2022-10-22T11:40:57.940Z,59.40
2022-10-22T11:46:26.834Z,54.60
2022-10-22T11:51:38.960Z,65.50
2022-10-22T11:56:41.755Z,59.20
2022-10-22T12:01:48.289Z,68.10
2022-10-22T12:06:56.077Z,80.10
2022-10-22T12:12:05.092Z,68.70
2022-10-22T12:17:07.781Z,66.40
2022-10-22T12:22:10.495Z,71.80
2022-10-22T12:27:25.287Z,71.70
2022-10-22T12:32:41.547Z,82.30
2022-10-22T12:37:44.596Z,63.10
2022-10-22T12:42:49.645Z,70.70
2022-10-22T12:47:57.587Z,68.10
2022-10-22T12:53:00.441Z,64.40
2022-10-22T12:58:06.899Z,55.40
2022-10-22T13:03:26.183Z,48.30
2022-10-22T13:08:29.361Z,62.30
2022-10-22T13:13:45.655Z,58.20
2022-10-22T13:18:48.892Z,60.10
2022-10-22T13:23:58.266Z,62.10
2022-10-22T13:29:02.984Z,65.90
2022-10-22T13:34:11.895Z,70.90
2022-10-22T13:39:22.031Z,69.00
2022-10-22T13:44:24.812Z,77.50
2022-10-22T13:49:27.564Z,64.50
2022-10-22T13:54:30.387Z,71.80
2022-10-22T13:59:33.162Z,66.90
2022-10-22T14:04:39.230Z,74.30
2022-10-22T14:09:42.472Z,58.70
2022-10-22T14:14:45.302Z,52.50
2022-10-22T14:19:49.709Z,66.10
2022-10-22T14:24:52.550Z,63.00
2022-10-22T14:29:59.391Z,73.60
2022-10-22T14:35:02.525Z,67.70
2022-10-22T14:40:06.740Z,70.30
2022-10-22T14:45:22.357Z,63.60
2022-10-22T14:50:25.424Z,73.20
2022-10-22T14:55:29.166Z,68.60
2022-10-22T15:00:32.045Z,55.70
2022-10-22T15:05:36.433Z,69.50
2022-10-22T15:10:39.319Z,74.20
2022-10-22T15:15:42.082Z,61.50
2022-10-22T15:20:55.695Z,117.90
2022-10-22T15:25:58.823Z,80.40
2022-10-22T15:36:12.791Z,67.70
2022-10-22T15:41:15.889Z,79.00
2022-10-22T15:46:19.719Z,87.90
2022-10-22T15:51:22.569Z,74.80
2022-10-22T15:56:27.761Z,73.20
2022-10-22T16:01:32.513Z,68.30
2022-10-22T16:06:37.607Z,63.50
2022-10-22T16:11:41.505Z,64.60
2022-10-22T16:16:47.041Z,74.90
2022-10-22T16:21:51.775Z,84.90
2022-10-22T16:26:55.460Z,67.50
2022-10-22T16:31:58.189Z,80.50
2022-10-22T16:37:00.991Z,77.90
2022-10-22T16:42:03.978Z,76.10
2022-10-22T16:47:06.721Z,84.30
2022-10-22T16:52:09.543Z,87.30
2022-10-22T16:57:12.549Z,77.60
2022-10-22T17:07:18.083Z,87.80
2022-10-22T17:12:20.873Z,82.20
2022-10-22T17:17:23.611Z,79.20
2022-10-22T17:22:26.602Z,71.40
2022-10-22T17:27:29.346Z,81.40
2022-10-22T17:32:35.584Z,68.80
2022-10-22T17:37:38.582Z,58.10
2022-10-22T17:47:44.630Z,64.80
2022-10-22T17:52:47.393Z,60.60
2022-10-22T17:57:50.175Z,70.50
2022-10-22T18:02:52.965Z,68.50
2022-10-22T18:07:58.837Z,50.40
2022-10-22T18:13:01.596Z,51.60
2022-10-22T18:18:04.538Z,56.90
2022-10-22T18:23:07.661Z,51.10
2022-10-22T18:33:17.937Z,44.60
2022-10-22T18:38:23.818Z,43.40
2022-10-22T18:43:26.917Z,38.90
2022-10-22T18:48:29.740Z,37.30
2022-10-22T18:53:32.921Z,37.40
2022-10-22T18:58:45.027Z,37.30
2022-10-22T19:03:49.182Z,33.10
2022-10-22T19:08:52.110Z,38.30
2022-10-22T19:19:04.387Z,29.90
2022-10-22T19:24:07.394Z,43.40
2022-10-22T19:34:16.611Z,31.30
2022-10-22T19:39:20.322Z,27.80
2022-10-22T19:44:23.266Z,36.20
2022-10-22T19:49:26.090Z,37.30
2022-10-22T19:54:28.825Z,44.60
2022-10-22T19:59:32.283Z,42.10
2022-10-22T20:04:36.429Z,47.00
2022-10-22T20:09:39.314Z,37.40
2022-10-22T20:14:42.387Z,50.50
2022-10-22T20:24:47.828Z,70.50
2022-10-22T20:29:50.608Z,53.60
2022-10-22T20:34:53.331Z,59.50
2022-10-22T20:39:56.073Z,65.10
2022-10-22T20:44:58.806Z,70.00
2022-10-22T20:50:01.698Z,66.40
2022-10-22T20:55:05.533Z,59.60
2022-10-22T21:00:09.047Z,56.20
2022-10-22T21:05:11.841Z,57.60
2022-10-22T21:10:14.671Z,62.60
2022-10-22T21:15:17.432Z,56.00
2022-10-22T21:20:22.416Z,63.70
2022-10-22T21:25:27.661Z,54.30
2022-10-22T21:30:30.467Z,57.10
2022-10-22T21:35:33.607Z,68.10
2022-10-22T21:40:36.848Z,56.50
2022-10-22T21:45:39.692Z,58.70
2022-10-22T21:50:44.166Z,53.90
2022-10-22T21:55:46.925Z,59.60
2022-10-22T22:00:55.644Z,50.60
2022-10-22T22:06:00.892Z,49.50
2022-10-22T22:11:07.222Z,53.20
2022-10-22T22:16:13.759Z,45.50
2022-10-22T22:21:19.885Z,48.70
2022-10-22T22:26:28.469Z,56.40
2022-10-22T22:31:34.319Z,51.40
2022-10-22T22:36:40.258Z,45.80
2022-10-22T22:41:43.530Z,37.70
2022-10-22T22:46:46.438Z,51.00
2022-10-22T22:51:49.630Z,58.30
2022-10-22T22:56:52.389Z,51.20
2022-10-22T23:01:55.281Z,41.50
2022-10-22T23:06:58.182Z,51.40
2022-10-22T23:12:00.981Z,48.70
2022-10-22T23:17:03.807Z,40.30
2022-10-22T23:22:06.632Z,44.80
2022-10-22T23:27:10.149Z,38.90
2022-10-22T23:32:16.902Z,39.70
2022-10-22T23:37:19.807Z,41.20
2022-10-22T23:42:22.604Z,38.20
2022-10-22T23:47:25.358Z,34.90
2022-10-22T23:52:28.497Z,37.90
